createdAt,value
2023-03-19T00:03:07.739Z,6.00
2023-03-19T00:07:12.744Z,5.90
2023-03-19T00:11:15.827Z,5.90
2023-03-19T00:15:22.156Z,5.90
2023-03-19T00:19:25.987Z,5.90
2023-03-19T00:23:29.365Z,6.10
2023-03-19T00:27:33.509Z,6.10
2023-03-19T00:31:38.093Z,6.20
2023-03-19T00:35:44.182Z,6.20
2023-03-19T00:39:47.626Z,6.20
2023-03-19T00:43:57.333Z,6.20
2023-03-19T00:48:01.860Z,6.10
2023-03-19T00:52:04.969Z,6.00
2023-03-19T00:56:11.486Z,5.90
2023-03-19T01:04:19.133Z,5.80
2023-03-19T01:08:28.587Z,5.70
2023-03-19T01:12:34.236Z,5.70
2023-03-19T01:16:39.979Z,5.80
2023-03-19T01:20:49.608Z,5.80
2023-03-19T01:24:55.811Z,5.80
2023-03-19T01:29:02.403Z,5.80
2023-03-19T01:33:08.474Z,5.70
2023-03-19T01:37:13.035Z,5.60
2023-03-19T01:41:19.977Z,5.60
2023-03-19T01:45:36.559Z,5.60
2023-03-19T01:49:40.576Z,5.60
2023-03-19T01:53:48.879Z,5.60
2023-03-19T01:57:52.315Z,5.50
2023-03-19T02:02:05.653Z,5.50
2023-03-19T02:06:09.366Z,5.40
2023-03-19T02:10:25.670Z,5.40
2023-03-19T02:14:32.157Z,5.30
2023-03-19T02:18:37.427Z,5.30
2023-03-19T02:22:47.608Z,5.20
2023-03-19T02:26:52.326Z,5.20
2023-03-19T02:30:57.267Z,5.10
2023-03-19T02:35:00.754Z,5.00
2023-03-19T02:39:05.670Z,4.80
2023-03-19T02:43:15.160Z,4.90
2023-03-19T02:47:19.274Z,4.90
2023-03-19T02:51:22.288Z,4.80
2023-03-19T02:55:25.751Z,4.80
2023-03-19T02:59:32.266Z,4.70
2023-03-19T03:03:35.597Z,4.80
2023-03-19T03:07:39.753Z,4.80
2023-03-19T03:11:44.442Z,4.80
2023-03-19T03:15:48.854Z,4.80
2023-03-19T03:19:51.896Z,4.90
2023-03-19T03:23:55.262Z,4.90
2023-03-19T03:27:58.235Z,4.90
2023-03-19T03:32:02.966Z,5.00
2023-03-19T03:36:06.482Z,5.00
2023-03-19T03:40:11.339Z,5.00
2023-03-19T03:44:14.624Z,5.00
2023-03-19T03:48:19.196Z,5.10
2023-03-19T03:52:25.423Z,5.10
2023-03-19T03:56:28.468Z,5.10
2023-03-19T04:00:35.202Z,5.00
2023-03-19T04:04:39.850Z,5.00
2023-03-19T04:08:46.109Z,5.00
2023-03-19T04:12:51.089Z,5.10
2023-03-19T04:16:54.228Z,5.20
2023-03-19T04:21:06.049Z,5.20
2023-03-19T04:25:13.209Z,5.30
2023-03-19T04:29:22.214Z,5.30
2023-03-19T04:33:25.732Z,5.30
2023-03-19T04:37:32.307Z,5.40
2023-03-19T04:41:39.855Z,5.40
2023-03-19T04:45:43.516Z,5.40
2023-03-19T04:49:47.139Z,5.40
2023-03-19T04:53:51.500Z,5.50
2023-03-19T04:57:54.520Z,5.60
2023-03-19T05:01:59.775Z,5.60
2023-03-19T05:06:03.365Z,5.60
2023-03-19T05:10:09.033Z,5.50
2023-03-19T05:14:13.857Z,5.50
2023-03-19T05:18:17.042Z,5.60
2023-03-19T05:22:21.091Z,5.70
2023-03-19T05:26:26.075Z,5.80
2023-03-19T05:30:31.685Z,5.80
2023-03-19T05:34:39.272Z,5.90
2023-03-19T05:38:51.352Z,6.10
2023-03-19T05:42:57.897Z,6.20
2023-03-19T05:47:03.913Z,6.40
2023-03-19T05:51:07.511Z,6.50
2023-03-19T05:55:11.170Z,6.60
2023-03-19T05:59:28.878Z,6.70
2023-03-19T06:03:35.107Z,6.80
2023-03-19T06:07:49.034Z,6.90
2023-03-19T06:11:54.793Z,7.00
2023-03-19T06:15:59.348Z,7.00
2023-03-19T06:20:02.551Z,7.10
2023-03-19T06:24:08.139Z,7.10
2023-03-19T06:28:11.788Z,7.10
2023-03-19T06:32:16.662Z,7.00
2023-03-19T06:36:19.695Z,7.10
2023-03-19T06:40:24.361Z,7.10
2023-03-19T06:44:28.494Z,7.20
2023-03-19T06:48:33.238Z,7.20
2023-03-19T06:52:36.280Z,7.30
2023-03-19T06:56:39.587Z,7.40
2023-03-19T07:00:43.024Z,7.40
2023-03-19T07:04:52.478Z,7.40
2023-03-19T07:08:57.347Z,7.40
2023-03-19T07:13:01.650Z,7.40
2023-03-19T07:17:04.808Z,7.50
2023-03-19T07:21:11.808Z,7.70
2023-03-19T07:25:17.685Z,8.10
2023-03-19T07:29:20.889Z,8.20
2023-03-19T07:33:26.042Z,8.30
2023-03-19T07:37:30.557Z,8.50
2023-03-19T07:41:35.610Z,8.90
2023-03-19T07:45:38.930Z,9.40
2023-03-19T07:49:41.969Z,9.80
2023-03-19T07:53:49.004Z,10.20
2023-03-19T07:57:52.105Z,10.40
2023-03-19T08:01:55.232Z,10.70
2023-03-19T08:05:58.298Z,11.00
2023-03-19T08:10:04.900Z,11.30
2023-03-19T08:14:13.751Z,11.60
2023-03-19T08:18:16.876Z,11.80
2023-03-19T08:22:22.629Z,12.00
2023-03-19T08:26:29.609Z,12.10
2023-03-19T08:30:33.264Z,12.40
2023-03-19T08:34:36.698Z,12.80
2023-03-19T08:38:45.276Z,13.00
2023-03-19T08:42:50.060Z,13.00
2023-03-19T08:46:53.072Z,13.00
2023-03-19T08:50:58.073Z,13.00
2023-03-19T08:55:01.349Z,13.10
2023-03-19T08:59:06.238Z,13.20
2023-03-19T09:03:09.254Z,13.10
2023-03-19T09:07:13.578Z,13.20
2023-03-19T09:11:17.365Z,13.30
2023-03-19T09:15:22.930Z,13.50
2023-03-19T09:19:29.139Z,13.60
2023-03-19T09:23:32.335Z,13.90
2023-03-19T09:27:35.614Z,14.10
2023-03-19T09:31:40.518Z,14.20
2023-03-19T09:35:45.684Z,14.20
2023-03-19T09:39:48.905Z,14.30
2023-03-19T09:44:05.746Z,14.40
2023-03-19T09:48:19.627Z,14.60
2023-03-19T09:52:35.558Z,14.60
2023-03-19T09:56:38.867Z,14.70
2023-03-19T10:00:42.809Z,14.70
2023-03-19T10:05:05.574Z,14.90
2023-03-19T10:09:45.503Z,15.10
2023-03-19T10:14:02.081Z,15.10
2023-03-19T10:18:10.026Z,15.10
2023-03-19T10:22:19.596Z,15.30
2023-03-19T10:26:32.354Z,15.50
2023-03-19T10:30:36.653Z,15.50
2023-03-19T10:34:45.410Z,15.50
2023-03-19T10:38:55.183Z,15.60
2023-03-19T10:43:10.706Z,15.70
2023-03-19T10:47:16.183Z,15.70
2023-03-19T10:51:27.671Z,15.70
2023-03-19T10:55:38.312Z,15.70
2023-03-19T10:59:41.320Z,15.80
2023-03-19T11:03:52.812Z,15.90
2023-03-19T11:08:02.230Z,15.90
2023-03-19T11:12:21.488Z,16.00
2023-03-19T11:16:24.898Z,16.10
2023-03-19T11:20:33.789Z,16.10
2023-03-19T11:24:41.438Z,16.20
2023-03-19T11:28:45.927Z,16.50
2023-03-19T11:33:28.855Z,16.20
2023-03-19T11:37:41.537Z,15.90
2023-03-19T11:42:01.892Z,15.90
2023-03-19T11:46:16.705Z,15.90
2023-03-19T11:50:27.322Z,16.10
2023-03-19T11:54:43.356Z,16.20
2023-03-19T11:59:09.187Z,16.10
2023-03-19T12:03:40.458Z,16.00
2023-03-19T12:07:51.235Z,15.80
2023-03-19T12:11:59.442Z,15.80
2023-03-19T12:16:14.675Z,15.80
2023-03-19T12:20:41.896Z,15.90
2023-03-19T12:25:02.815Z,16.20
2023-03-19T12:29:19.690Z,16.70
2023-03-19T12:33:38.397Z,17.30
2023-03-19T12:37:54.888Z,17.50
2023-03-19T12:42:04.142Z,17.60
2023-03-19T12:46:14.551Z,17.80
2023-03-19T12:50:19.992Z,18.00
2023-03-19T12:54:28.530Z,18.50
2023-03-19T12:58:46.860Z,18.90
2023-03-19T13:02:57.758Z,19.00
2023-03-19T13:07:06.812Z,19.20
2023-03-19T13:11:15.496Z,19.10
2023-03-19T13:15:28.986Z,19.10
2023-03-19T13:19:44.495Z,19.10
2023-03-19T13:23:51.104Z,19.40
2023-03-19T13:27:57.786Z,19.70
2023-03-19T13:32:11.371Z,19.90
2023-03-19T13:36:18.010Z,19.80
2023-03-19T13:40:48.440Z,19.90
2023-03-19T13:45:03.754Z,19.90
2023-03-19T13:49:35.475Z,20.00
2023-03-19T13:53:53.516Z,20.30
2023-03-19T13:58:12.190Z,20.60
2023-03-19T14:02:50.894Z,20.40
2023-03-19T14:06:59.728Z,20.30
2023-03-19T14:11:05.814Z,20.20
2023-03-19T14:15:20.350Z,19.90
2023-03-19T14:19:30.928Z,19.80
2023-03-19T14:23:44.154Z,19.80
2023-03-19T14:27:59.298Z,19.70
2023-03-19T14:32:10.370Z,19.50
2023-03-19T14:36:19.865Z,19.40
2023-03-19T14:40:34.121Z,19.30
2023-03-19T14:45:07.279Z,19.10
2023-03-19T14:49:52.935Z,19.10
2023-03-19T14:54:06.299Z,19.10
2023-03-19T14:58:13.806Z,19.00
2023-03-19T15:02:32.033Z,19.00
2023-03-19T15:06:39.738Z,18.90
2023-03-19T15:10:57.176Z,18.50
2023-03-19T15:15:39.158Z,18.20
2023-03-19T15:19:44.454Z,18.00
2023-03-19T15:23:48.300Z,17.80
2023-03-19T15:28:09.892Z,17.50
2023-03-19T15:32:16.102Z,17.40
2023-03-19T15:36:31.724Z,17.50
2023-03-19T15:40:42.733Z,17.60
2023-03-19T15:44:50.573Z,17.80
2023-03-19T15:48:58.366Z,17.90
2023-03-19T15:53:05.989Z,18.10
2023-03-19T15:57:10.698Z,18.40
2023-03-19T16:01:19.544Z,18.60
2023-03-19T16:05:27.497Z,18.60
2023-03-19T16:09:37.277Z,18.50
2023-03-19T16:13:41.364Z,18.50
2023-03-19T16:17:49.532Z,18.50
2023-03-19T16:21:53.556Z,18.40
2023-03-19T16:26:15.735Z,18.20
2023-03-19T16:30:22.613Z,18.00
2023-03-19T16:34:37.094Z,17.80
2023-03-19T16:38:46.389Z,17.50
2023-03-19T16:42:52.958Z,17.30
2023-03-19T16:46:59.419Z,17.10
2023-03-19T16:51:06.640Z,16.70
2023-03-19T16:55:20.891Z,16.50
2023-03-19T16:59:30.251Z,16.10
2023-03-19T17:03:33.401Z,15.70
2023-03-19T17:07:43.524Z,15.20
2023-03-19T17:11:49.683Z,14.70
2023-03-19T17:15:55.568Z,14.20
2023-03-19T17:20:01.283Z,13.80
2023-03-19T17:24:21.702Z,13.30
2023-03-19T17:28:28.974Z,12.80
2023-03-19T17:32:32.255Z,12.30
2023-03-19T17:36:38.083Z,12.00
2023-03-19T17:40:44.285Z,11.70
2023-03-19T17:44:48.013Z,11.50
2023-03-19T17:48:54.720Z,11.20
2023-03-19T17:52:58.023Z,11.00
2023-03-19T17:57:02.488Z,10.80
2023-03-19T18:01:11.741Z,10.60
2023-03-19T18:05:21.987Z,10.40
2023-03-19T18:09:29.415Z,10.30
2023-03-19T18:13:39.762Z,10.20
2023-03-19T18:17:55.897Z,10.10
2023-03-19T18:21:59.184Z,10.00
2023-03-19T18:26:05.777Z,9.80
2023-03-19T18:30:13.940Z,9.70
2023-03-19T18:34:18.847Z,9.60
2023-03-19T18:38:23.657Z,9.50
2023-03-19T18:42:26.814Z,9.30
2023-03-19T18:46:34.391Z,9.20
2023-03-19T18:50:37.588Z,9.10
2023-03-19T18:54:43.512Z,8.90
2023-03-19T18:58:46.816Z,8.80
2023-03-19T19:02:54.330Z,8.60
2023-03-19T19:06:57.467Z,8.50
2023-03-19T19:11:05.684Z,8.40
2023-03-19T19:15:18.446Z,8.50
2023-03-19T19:19:40.800Z,8.50
2023-03-19T19:23:47.394Z,8.50
2023-03-19T19:27:57.501Z,8.50
2023-03-19T19:32:00.805Z,8.30
2023-03-19T19:36:06.369Z,8.20
2023-03-19T19:40:15.859Z,8.10
2023-03-19T19:44:21.444Z,8.10
2023-03-19T19:48:26.333Z,8.10
2023-03-19T19:52:31.933Z,8.10
2023-03-19T19:56:35.370Z,8.10
2023-03-19T20:01:02.223Z,8.00
2023-03-19T20:05:07.768Z,8.00
2023-03-19T20:09:12.205Z,8.20
2023-03-19T20:13:24.318Z,8.40
2023-03-19T20:17:29.063Z,8.60
2023-03-19T20:21:34.066Z,8.70
2023-03-19T20:25:44.310Z,8.80
2023-03-19T20:29:56.376Z,8.80
2023-03-19T20:33:59.471Z,8.90
2023-03-19T20:38:03.540Z,9.10
2023-03-19T20:42:16.269Z,9.20
2023-03-19T20:46:21.059Z,9.20
2023-03-19T20:50:28.809Z,9.30
2023-03-19T20:54:37.625Z,9.30
2023-03-19T20:58:42.069Z,9.40
2023-03-19T21:02:48.052Z,9.50
2023-03-19T21:06:53.862Z,9.60
2023-03-19T21:10:58.352Z,9.90
2023-03-19T21:15:02.812Z,10.10
2023-03-19T21:19:08.102Z,10.30
2023-03-19T21:23:18.607Z,10.40
2023-03-19T21:27:24.668Z,10.30
2023-03-19T21:31:32.128Z,10.10
2023-03-19T21:35:38.643Z,10.00
2023-03-19T21:39:41.929Z,9.90
2023-03-19T21:43:48.430Z,9.80
2023-03-19T21:47:54.899Z,9.70
2023-03-19T21:51:58.244Z,9.70
2023-03-19T21:56:02.476Z,9.70
2023-03-19T22:00:12.794Z,9.60
2023-03-19T22:04:19.266Z,9.50
2023-03-19T22:08:25.761Z,9.40
2023-03-19T22:12:32.650Z,9.50
2023-03-19T22:16:39.898Z,9.50
2023-03-19T22:20:49.089Z,9.50
2023-03-19T22:24:54.779Z,9.50
2023-03-19T22:28:59.930Z,9.60
2023-03-19T22:33:04.451Z,9.60
2023-03-19T22:37:24.997Z,9.60
2023-03-19T22:41:31.905Z,9.60
2023-03-19T22:45:35.184Z,9.70
2023-03-19T22:49:38.400Z,9.70
2023-03-19T22:53:46.905Z,9.70
2023-03-19T22:57:50.750Z,9.80
2023-03-19T23:01:53.933Z,9.80
2023-03-19T23:06:02.514Z,9.80
2023-03-19T23:10:16.908Z,9.70
2023-03-19T23:14:30.862Z,9.70
2023-03-19T23:18:36.749Z,9.60
2023-03-19T23:22:40.103Z,9.50
2023-03-19T23:26:46.065Z,9.40
2023-03-19T23:30:52.368Z,9.40
2023-03-19T23:35:01.301Z,9.40
2023-03-19T23:39:10.558Z,9.40
2023-03-19T23:43:22.054Z,9.40
2023-03-19T23:47:25.524Z,9.30
2023-03-19T23:51:34.538Z,9.30
2023-03-19T23:55:44.742Z,9.20
2023-03-19T23:59:54.199Z,9.30
